Time;durP1;ratioP1;P1;durP2;ratioP2;P2;SDS_P1;SDS_P2;PMS_P1;PMS_P2;Temp;Humidity;BMP_temperature;BMP_pressure;BME280_temperature;BME280_humidity;BME280_pressure;Samples;Min_cycle;Max_cycle;Signal;HPM_P1;HPM_P2
2023/06/01 00:00:09;;;;;;;;;;;;;;;19.74;54.26;99757.53;4383961;32;34704;-79
2023/06/01 00:02:40;;;;;;;;;;;;;;;19.47;54.87;99757.06;4384301;32;34845;-78
2023/06/01 00:05:09;;;;;;;;;;;;;;;19.40;55.29;99750.41;4383791;32;33847;-80
2023/06/01 00:07:37;;;;;;;;;;;;;;;19.50;54.96;99753.44;4389693;32;34162;-81
2023/06/01 00:10:07;;;;;;;;;;;;;;;19.63;54.43;99749.28;4384376;32;34187;-80
2023/06/01 00:12:35;;;;;;;;;;;;;;;19.56;54.44;99747.88;4384186;32;34312;-79
2023/06/01 00:15:04;;;;;;;;;;;;;;;19.55;54.24;99747.03;4383820;32;33246;-79
2023/06/01 00:17:33;;;;;;;;;;;;;;;19.56;54.23;99743.47;4383897;32;34017;-81
2023/06/01 00:20:07;;;;;;;;;;;;;;;19.34;54.82;99743.66;4389107;32;34082;-79
2023/06/01 00:22:38;;;;;;;;;;;;;;;19.46;54.54;99736.97;4381378;32;34475;-80
2023/06/01 00:25:07;;;;;;;;;;;;;;;19.50;54.28;99746.41;4376019;32;32614;-80
2023/06/01 00:27:36;;;;;;;;;;;;;;;19.40;54.53;99746.00;4383648;32;33613;-80
2023/06/01 00:30:05;;;;;;;;;;;;;;;19.35;54.63;99734.87;4389093;32;34405;-80
2023/06/01 00:32:34;;;;;;;;;;;;;;;19.37;54.57;99734.78;4383662;32;34996;-81
2023/06/01 00:35:05;;;;;;;;;;;;;;;19.18;54.98;99742.69;4383824;32;33245;-80
2023/06/01 00:37:34;;;;;;;;;;;;;;;19.27;54.44;99737.00;4383842;32;35106;-79
2023/06/01 00:40:03;;;;;;;;;;;;;;;19.24;54.10;99744.19;4383365;32;35060;-79
2023/06/01 00:42:32;;;;;;;;;;;;;;;19.22;54.03;99739.00;4389199;32;34426;-78
2023/06/01 00:45:01;;;;;;;;;;;;;;;19.00;54.57;99743.59;4383337;32;33727;-79
2023/06/01 00:47:31;;;;;;;;;;;;;;;18.93;54.69;99748.28;4383589;32;34624;-78
2023/06/01 00:50:00;;;;;;;;;;;;;;;18.96;54.57;99738.44;4383129;32;34978;-79
2023/06/01 00:52:35;;;;;;;;;;;;;;;19.06;54.42;99740.66;4389581;32;34182;-80
2023/06/01 00:55:05;;;;;;;;;;;;;;;18.55;55.86;99742.97;4385643;32;32712;-81
2023/06/01 00:57:34;;;;;;;;;;;;;;;18.85;55.06;99739.91;4385696;32;33969;-79
2023/06/01 01:00:07;;;;;;;;;;;;;;;18.81;55.07;99738.31;4385486;32;33584;-79
2023/06/01 01:02:38;;;;;;;;;;;;;;;18.90;54.70;99736.13;4385879;32;35129;-79
2023/06/01 01:05:09;;;;;;;;;;;;;;;18.87;54.61;99738.91;4390957;32;32532;-81
2023/06/01 01:07:42;;;;;;;;;;;;;;;18.73;54.73;99736.88;4385511;32;33968;-79
2023/06/01 01:10:12;;;;;;;;;;;;;;;18.87;54.06;99730.12;4385551;32;33857;-78
2023/06/01 01:12:43;;;;;;;;;;;;;;;18.73;54.53;99734.25;4385605;32;34155;-79
2023/06/01 01:15:13;;;;;;;;;;;;;;;18.56;54.49;99739.44;4391249;32;34203;-79
2023/06/01 01:17:44;;;;;;;;;;;;;;;18.63;54.42;99734.72;4386396;32;34643;-79
2023/06/01 01:20:15;;;;;;;;;;;;;;;18.64;54.41;99732.03;4385071;32;34795;-79
2023/06/01 01:22:53;;;;;;;;;;;;;;;18.56;54.65;99731.53;4386374;32;35138;-80
2023/06/01 01:25:22;;;;;;;;;;;;;;;18.54;54.55;99733.38;4385518;32;32940;-78
2023/06/01 01:27:57;;;;;;;;;;;;;;;18.58;54.12;99731.44;4391239;32;33831;-80
2023/06/01 01:30:27;;;;;;;;;;;;;;;18.56;54.43;99728.91;4385519;32;33815;-79
2023/06/01 01:32:57;;;;;;;;;;;;;;;18.58;54.26;99727.06;4385795;32;34530;-81
2023/06/01 01:35:25;;;;;;;;;;;;;;;18.44;54.71;99732.09;4385371;32;33210;-78
2023/06/01 01:37:54;;;;;;;;;;;;;;;18.53;54.18;99724.66;4385603;32;34255;-78
2023/06/01 01:40:25;;;;;;;;;;;;;;;18.62;54.05;99728.63;4377044;32;33949;-81
2023/06/01 01:42:54;;;;;;;;;;;;;;;18.47;54.39;99729.31;4385267;32;35633;-80
2023/06/01 01:45:23;;;;;;;;;;;;;;;18.36;54.78;99731.56;4385148;32;33212;-80
2023/06/01 01:47:55;;;;;;;;;;;;;;;18.31;54.96;99724.78;4385002;32;34819;-79
2023/06/01 01:50:25;;;;;;;;;;;;;;;18.17;55.28;99729.78;4390809;32;34068;-80
2023/06/01 01:52:55;;;;;;;;;;;;;;;18.36;54.79;99731.56;4383793;32;34297;-79
2023/06/01 01:55:24;;;;;;;;;;;;;;;18.36;54.89;99727.16;4382871;32;33611;-78
2023/06/01 01:57:53;;;;;;;;;;;;;;;18.17;55.51;99727.16;4385342;32;33724;-81
2023/06/01 02:00:22;;;;;;;;;;;;;;;18.40;54.90;99720.84;4386668;32;33904;-81
2023/06/01 02:02:51;;;;;;;;;;;;;;;18.22;55.54;99730.41;4390549;32;33956;-80
2023/06/01 02:05:21;;;;;;;;;;;;;;;18.20;55.62;99716.50;4384245;32;33380;-79
2023/06/01 02:07:50;;;;;;;;;;;;;;;18.12;55.75;99721.22;4384848;32;33436;-78
2023/06/01 02:10:19;;;;;;;;;;;;;;;18.02;55.61;99717.28;4385085;32;33951;-79
2023/06/01 02:12:48;;;;;;;;;;;;;;;18.06;55.36;99721.50;4390700;32;34496;-79
2023/06/01 02:15:17;;;;;;;;;;;;;;;18.21;55.10;99715.56;4384950;32;34236;-81
2023/06/01 02:17:46;;;;;;;;;;;;;;;18.00;56.13;99716.50;4385079;32;33537;-79
2023/06/01 02:20:16;;;;;;;;;;;;;;;18.01;55.77;99710.34;4387116;32;35001;-80
2023/06/01 02:22:46;;;;;;;;;;;;;;;18.04;55.57;99712.84;4390938;32;35229;-79
2023/06/01 02:25:15;;;;;;;;;;;;;;;18.11;55.27;99715.12;4385071;32;33616;-78
2023/06/01 02:27:44;;;;;;;;;;;;;;;18.10;55.05;99715.22;4384756;32;34832;-79
2023/06/01 02:30:13;;;;;;;;;;;;;;;17.99;54.69;99718.28;4385148;32;34648;-79
2023/06/01 02:32:44;;;;;;;;;;;;;;;17.99;55.15;99707.78;4384618;32;34991;-79
2023/06/01 02:35:14;;;;;;;;;;;;;;;18.00;54.19;99709.50;4390641;32;34264;-78
2023/06/01 02:37:43;;;;;;;;;;;;;;;17.85;54.82;99704.91;4384900;32;34826;-78
2023/06/01 02:40:13;;;;;;;;;;;;;;;17.87;54.63;99703.06;4384968;32;34997;-78
2023/06/01 02:42:42;;;;;;;;;;;;;;;17.79;54.80;99699.91;4385221;32;34466;-77
2023/06/01 02:45:11;;;;;;;;;;;;;;;17.95;54.11;99707.97;4390468;32;34415;-78
2023/06/01 02:47:39;;;;;;;;;;;;;;;17.77;54.41;99702.56;4384777;32;33869;-80
2023/06/01 02:50:10;;;;;;;;;;;;;;;17.71;54.54;99692.34;4385047;32;34789;-79
2023/06/01 02:52:41;;;;;;;;;;;;;;;17.95;54.13;99700.09;4384793;32;33795;-79
2023/06/01 02:55:10;;;;;;;;;;;;;;;17.81;54.52;99696.31;4385113;32;32909;-81
2023/06/01 02:57:42;;;;;;;;;;;;;;;17.95;54.43;99702.72;4390161;32;34044;-79
2023/06/01 03:00:15;;;;;;;;;;;;;;;17.63;55.10;99700.53;4384798;32;34069;-78
2023/06/01 03:02:46;;;;;;;;;;;;;;;17.85;54.92;99697.88;4384871;32;34755;-80
2023/06/01 03:05:14;;;;;;;;;;;;;;;17.80;55.13;99701.59;4385104;32;33434;-80
2023/06/01 03:07:44;;;;;;;;;;;;;;;18.01;53.99;99703.31;4381440;32;34691;-79
2023/06/01 03:10:13;;;;;;;;;;;;;;;17.91;54.61;99707.28;4384883;32;33588;-78
2023/06/01 03:12:44;;;;;;;;;;;;;;;17.98;54.33;99711.34;4384719;32;34052;-79
2023/06/01 03:15:13;;;;;;;;;;;;;;;17.98;54.35;99705.25;4351772;32;1091111;-79
2023/06/01 03:17:42;;;;;;;;;;;;;;;18.03;54.22;99703.28;4384589;32;33951;-79
2023/06/01 03:20:15;;;;;;;;;;;;;;;17.88;54.87;99708.25;4390077;32;33743;-78
2023/06/01 03:22:44;;;;;;;;;;;;;;;17.98;54.71;99706.09;4384270;32;34525;-80
2023/06/01 03:25:13;;;;;;;;;;;;;;;17.99;54.72;99706.94;4385017;32;32985;-81
2023/06/01 03:27:42;;;;;;;;;;;;;;;18.02;54.95;99706.78;4384619;32;34185;-79
2023/06/01 03:30:12;;;;;;;;;;;;;;;17.93;55.15;99702.81;4387811;32;34789;-79
2023/06/01 03:32:42;;;;;;;;;;;;;;;17.99;55.15;99702.53;4384171;32;34942;-79
2023/06/01 03:35:11;;;;;;;;;;;;;;;18.10;55.33;99699.47;4384319;32;33215;-79
2023/06/01 03:37:40;;;;;;;;;;;;;;;17.97;55.66;99699.13;4384697;32;34637;-78
2023/06/01 03:40:11;;;;;;;;;;;;;;;18.09;55.25;99703.00;4384271;32;35009;-78
2023/06/01 03:42:41;;;;;;;;;;;;;;;18.12;55.23;99697.59;4390175;32;35131;-79
2023/06/01 03:45:12;;;;;;;;;;;;;;;18.18;55.14;99696.50;4384720;32;34386;-81
2023/06/01 03:47:41;;;;;;;;;;;;;;;18.19;55.12;99706.91;4384260;32;33874;-80
2023/06/01 03:50:10;;;;;;;;;;;;;;;18.32;54.54;99701.97;4384847;32;35124;-79
2023/06/01 03:52:39;;;;;;;;;;;;;;;18.33;54.48;99699.25;4389919;32;34334;-79
2023/06/01 03:55:10;;;;;;;;;;;;;;;18.35;53.99;99693.94;4384274;32;33635;-78
2023/06/01 03:57:41;;;;;;;;;;;;;;;18.46;53.72;99690.81;4384377;32;34225;-78
2023/06/01 04:00:18;;;;;;;;;;;;;;;18.63;52.95;99693.56;4384014;32;34129;-78
2023/06/01 04:02:52;;;;;;;;;;;;;;;18.63;53.16;99690.94;4384238;32;33969;-78
2023/06/01 04:05:21;;;;;;;;;;;;;;;18.73;52.95;99694.81;4389592;32;33238;-80
2023/06/01 04:07:51;;;;;;;;;;;;;;;18.78;51.26;99688.53;4384120;32;33499;-79
2023/06/01 04:10:20;;;;;;;;;;;;;;;18.93;52.06;99691.28;4383949;32;34184;-79
2023/06/01 04:12:50;;;;;;;;;;;;;;;19.03;52.19;99686.44;4383379;32;34167;-79
2023/06/01 04:15:20;;;;;;;;;;;;;;;19.23;51.01;99688.09;4389454;32;33052;-81
2023/06/01 04:17:50;;;;;;;;;;;;;;;19.38;51.00;99689.97;4387029;32;34921;-81
2023/06/01 04:20:19;;;;;;;;;;;;;;;19.55;50.82;99690.94;4383698;32;34783;-80
2023/06/01 04:22:48;;;;;;;;;;;;;;;20.10;49.65;99701.28;4383766;32;35028;-81
2023/06/01 04:25:20;;;;;;;;;;;;;;;21.19;46.91;99691.88;4383974;32;34774;-80
2023/06/01 04:27:51;;;;;;;;;;;;;;;22.17;44.55;99702.81;4389889;32;34312;-79
2023/06/01 04:30:23;;;;;;;;;;;;;;;22.96;42.77;99695.31;4385928;32;33928;-81
2023/06/01 04:32:53;;;;;;;;;;;;;;;23.70;41.50;99686.00;4387261;32;35394;-82
2023/06/01 04:35:23;;;;;;;;;;;;;;;24.39;39.81;99696.34;4391293;32;32575;-79
2023/06/01 04:37:53;;;;;;;;;;;;;;;24.96;38.89;99692.28;4401904;32;33674;-81
2023/06/01 04:40:23;;;;;;;;;;;;;;;25.37;38.42;99702.56;4391521;32;35057;-80
2023/06/01 04:42:55;;;;;;;;;;;;;;;25.89;36.76;99698.63;4385555;32;34148;-79
2023/06/01 04:45:26;;;;;;;;;;;;;;;26.23;36.05;99698.69;4385864;32;32835;-80
2023/06/01 04:47:57;;;;;;;;;;;;;;;26.65;35.01;99701.63;4385808;32;33125;-80
2023/06/01 04:50:28;;;;;;;;;;;;;;;26.88;34.65;99706.91;4391421;32;34398;-79
2023/06/01 04:52:57;;;;;;;;;;;;;;;27.16;34.46;99701.03;4385834;32;33919;-80
2023/06/01 04:55:26;;;;;;;;;;;;;;;27.26;34.14;99702.97;4390832;32;32844;-80
2023/06/01 04:57:56;;;;;;;;;;;;;;;27.61;33.98;99706.16;4400158;32;32985;-79
2023/06/01 05:00:27;;;;;;;;;;;;;;;27.87;33.21;99706.66;4396743;32;33992;-80
2023/06/01 05:02:56;;;;;;;;;;;;;;;28.00;32.30;99705.63;4388897;32;33897;-80
2023/06/01 05:05:24;;;;;;;;;;;;;;;27.72;33.53;99707.09;4385320;32;33368;-80
2023/06/01 05:07:53;;;;;;;;;;;;;;;28.09;33.18;99705.66;4385171;32;34719;-82
2023/06/01 05:10:22;;;;;;;;;;;;;;;28.16;33.30;99707.81;4384978;32;33997;-80
2023/06/01 05:12:51;;;;;;;;;;;;;;;27.71;33.69;99706.25;4391401;32;34064;-80
2023/06/01 05:15:20;;;;;;;;;;;;;;;27.17;33.11;99713.34;4384093;32;33650;-80
2023/06/01 05:17:50;;;;;;;;;;;;;;;27.28;31.45;99716.97;4383953;32;33607;-80
2023/06/01 05:20:19;;;;;;;;;;;;;;;27.58;31.34;99705.59;4383928;32;36801;-81
2023/06/01 05:22:48;;;;;;;;;;;;;;;27.61;30.79;99714.16;4375651;32;34371;-80
2023/06/01 05:25:17;;;;;;;;;;;;;;;27.74;31.54;99715.78;4384963;32;33295;-81
2023/06/01 05:27:46;;;;;;;;;;;;;;;27.69;32.40;99718.00;4384899;32;34872;-80
2023/06/01 05:30:14;;;;;;;;;;;;;;;26.84;32.69;99719.59;4388085;32;34585;-81
2023/06/01 05:32:44;;;;;;;;;;;;;;;27.17;32.39;99720.50;4396166;32;34563;-81
2023/06/01 05:35:16;;;;;;;;;;;;;;;26.27;34.51;99716.09;4406379;32;33873;-79
2023/06/01 05:37:45;;;;;;;;;;;;;;;25.50;36.03;99710.47;4400804;32;32050;-82
2023/06/01 05:40:15;;;;;;;;;;;;;;;25.46;36.06;99712.47;4399413;32;32855;-80
2023/06/01 05:42:44;;;;;;;;;;;;;;;25.10;37.20;99700.97;4395070;32;34331;-82
2023/06/01 05:45:13;;;;;;;;;;;;;;;25.91;36.13;99711.81;4390892;32;33296;-81
2023/06/01 05:47:42;;;;;;;;;;;;;;;25.75;33.12;99720.06;4385217;32;34174;-80
2023/06/01 05:50:11;;;;;;;;;;;;;;;26.01;33.49;99717.28;4385642;32;34117;-81
2023/06/01 05:52:42;;;;;;;;;;;;;;;26.18;33.87;99714.16;4385342;32;35030;-80
2023/06/01 05:55:12;;;;;;;;;;;;;;;25.11;34.62;99707.94;4385501;32;34432;-81
2023/06/01 05:57:41;;;;;;;;;;;;;;;25.24;33.36;99710.56;4390621;32;34935;-81
2023/06/01 06:00:12;;;;;;;;;;;;;;;24.32;34.65;99718.94;4385993;32;35062;-80
2023/06/01 06:02:43;;;;;;;;;;;;;;;24.46;35.55;99708.25;4388974;32;33497;-80
2023/06/01 06:05:12;;;;;;;;;;;;;;;24.82;34.59;99710.06;4398126;32;33789;-81
2023/06/01 06:07:42;;;;;;;;;;;;;;;24.97;34.65;99708.12;4399776;32;34256;-80
2023/06/01 06:10:12;;;;;;;;;;;;;;;24.18;36.27;99710.13;4392788;32;34030;-80
2023/06/01 06:12:41;;;;;;;;;;;;;;;24.20;36.62;99716.19;4398792;32;34489;-80
2023/06/01 06:15:10;;;;;;;;;;;;;;;23.95;37.09;99711.72;4399968;32;33559;-80
2023/06/01 06:17:38;;;;;;;;;;;;;;;23.70;37.22;99717.78;4399769;32;33779;-80
2023/06/01 06:20:08;;;;;;;;;;;;;;;23.75;37.88;99712.22;4404824;32;34842;-80
2023/06/01 06:22:37;;;;;;;;;;;;;;;23.63;37.69;99706.78;4399687;32;33902;-82
2023/06/01 06:25:08;;;;;;;;;;;;;;;23.64;38.10;99711.13;4395924;32;33403;-81
2023/06/01 06:27:37;;;;;;;;;;;;;;;24.25;36.78;99710.56;4399883;32;33538;-80
2023/06/01 06:30:07;;;;;;;;;;;;;;;24.60;36.57;99712.59;4401551;32;33720;-81
2023/06/01 06:32:40;;;;;;;;;;;;;;;24.51;35.39;99714.06;4388683;32;33969;-81
2023/06/01 06:35:12;;;;;;;;;;;;;;;24.56;36.50;99711.09;4392369;32;33487;-80
2023/06/01 06:37:44;;;;;;;;;;;;;;;24.41;36.49;99713.00;4399693;32;34469;-80
2023/06/01 06:40:14;;;;;;;;;;;;;;;24.31;36.35;99712.78;4399553;32;33913;-81
2023/06/01 06:42:42;;;;;;;;;;;;;;;24.73;36.38;99709.88;4405636;32;34000;-79
2023/06/01 06:45:11;;;;;;;;;;;;;;;24.23;36.45;99704.50;4399901;32;33594;-81
2023/06/01 06:47:41;;;;;;;;;;;;;;;24.01;37.20;99707.81;4399604;32;35031;-81
2023/06/01 06:50:11;;;;;;;;;;;;;;;24.75;35.14;99703.50;4395109;32;34027;-80
2023/06/01 06:52:40;;;;;;;;;;;;;;;24.58;36.09;99699.41;4405193;32;35814;-79
2023/06/01 06:55:09;;;;;;;;;;;;;;;24.68;37.03;99710.22;4400080;32;33480;-81
2023/06/01 06:57:40;;;;;;;;;;;;;;;25.17;35.44;99695.19;4400284;32;33635;-81
2023/06/01 07:00:14;;;;;;;;;;;;;;;25.07;35.52;99703.81;4400159;32;34212;-79
2023/06/01 07:02:44;;;;;;;;;;;;;;;24.98;35.01;99711.59;4400220;32;35023;-81
2023/06/01 07:05:13;;;;;;;;;;;;;;;25.35;35.02;99712.44;4405396;32;33056;-79
2023/06/01 07:07:42;;;;;;;;;;;;;;;24.49;35.95;99702.72;4393416;32;35202;-79
2023/06/01 07:10:10;;;;;;;;;;;;;;;24.73;34.88;99707.25;4384717;32;33527;-82
2023/06/01 07:12:41;;;;;;;;;;;;;;;24.74;36.60;99708.91;4384837;32;34177;-79
2023/06/01 07:15:10;;;;;;;;;;;;;;;25.07;34.16;99706.47;4390146;32;33219;-80
2023/06/01 07:17:39;;;;;;;;;;;;;;;25.51;34.17;99705.00;4384649;32;34126;-80
2023/06/01 07:20:10;;;;;;;;;;;;;;;25.65;34.75;99709.28;4384312;32;34887;-82
2023/06/01 07:22:42;;;;;;;;;;;;;;;25.52;33.61;99706.72;4384577;32;34223;-81
2023/06/01 07:25:13;;;;;;;;;;;;;;;25.59;33.50;99707.12;4384657;32;33403;-80
2023/06/01 07:27:43;;;;;;;;;;;;;;;25.00;33.56;99707.03;4390247;32;34130;-79
2023/06/01 07:30:13;;;;;;;;;;;;;;;25.32;33.73;99702.03;4384820;32;35824;-80
2023/06/01 07:32:42;;;;;;;;;;;;;;;25.51;33.96;99706.81;4384380;32;34730;-81
2023/06/01 07:35:12;;;;;;;;;;;;;;;25.47;34.34;99700.06;4384537;32;32424;-81
2023/06/01 07:37:41;;;;;;;;;;;;;;;25.74;34.37;99702.44;4389987;32;34068;-82
2023/06/01 07:40:11;;;;;;;;;;;;;;;25.94;34.95;99708.91;4384396;32;33928;-79
2023/06/01 07:42:40;;;;;;;;;;;;;;;25.98;33.06;99702.41;4384860;32;33510;-80
2023/06/01 07:45:11;;;;;;;;;;;;;;;25.83;32.84;99699.09;4384219;32;33096;-81
2023/06/01 07:47:39;;;;;;;;;;;;;;;25.80;32.94;99703.78;4384606;32;34199;-81
2023/06/01 07:50:09;;;;;;;;;;;;;;;25.37;32.81;99696.37;4389766;32;34326;-79
2023/06/01 07:52:38;;;;;;;;;;;;;;;26.08;32.86;99703.37;4384451;32;34464;-80
2023/06/01 07:55:09;;;;;;;;;;;;;;;26.29;31.35;99698.22;4384371;32;33291;-80
2023/06/01 07:57:38;;;;;;;;;;;;;;;25.69;32.58;99701.94;4384612;32;34387;-82
2023/06/01 08:00:11;;;;;;;;;;;;;;;25.73;33.78;99695.41;4389578;32;34188;-80
2023/06/01 08:02:41;;;;;;;;;;;;;;;25.96;33.14;99699.84;4382976;32;34699;-80
2023/06/01 08:05:11;;;;;;;;;;;;;;;26.38;32.54;99699.28;4385471;32;31974;-80
2023/06/01 08:07:42;;;;;;;;;;;;;;;26.51;32.29;99705.34;4386247;32;34208;-79
2023/06/01 08:10:11;;;;;;;;;;;;;;;26.32;32.94;99689.97;4388624;32;33738;-79
2023/06/01 08:12:40;;;;;;;;;;;;;;;26.64;33.73;99689.25;4391301;32;34152;-80
2023/06/01 08:15:10;;;;;;;;;;;;;;;26.85;33.28;99696.50;4386271;32;33646;-80
2023/06/01 08:17:38;;;;;;;;;;;;;;;26.60;31.62;99687.81;4390262;32;34054;-80
2023/06/01 08:20:12;;;;;;;;;;;;;;;26.49;31.19;99683.31;4400368;32;34883;-81
2023/06/01 08:22:41;;;;;;;;;;;;;;;26.84;31.22;99689.47;4405712;32;34393;-80
2023/06/01 08:25:10;;;;;;;;;;;;;;;26.94;30.86;99685.09;4400904;32;34030;-80
2023/06/01 08:27:38;;;;;;;;;;;;;;;27.09;30.35;99683.84;4401418;32;33740;-80
2023/06/01 08:30:08;;;;;;;;;;;;;;;27.32;31.13;99676.62;4400827;32;34042;-81
2023/06/01 08:32:37;;;;;;;;;;;;;;;27.33;30.10;99689.00;4404947;32;33819;-81
2023/06/01 08:35:06;;;;;;;;;;;;;;;27.13;30.62;99692.41;4405932;32;34070;-80
2023/06/01 08:37:36;;;;;;;;;;;;;;;27.41;29.78;99688.34;4400998;32;35029;-81
2023/06/01 08:40:08;;;;;;;;;;;;;;;27.75;29.41;99686.34;4401570;32;33397;-81
2023/06/01 08:42:41;;;;;;;;;;;;;;;27.36;29.78;99682.56;4400552;32;33544;-82
2023/06/01 08:45:10;;;;;;;;;;;;;;;27.68;29.40;99682.53;4401426;32;33660;-82
2023/06/01 08:47:40;;;;;;;;;;;;;;;27.38;30.61;99686.78;4400418;32;34702;-82
2023/06/01 08:50:10;;;;;;;;;;;;;;;26.60;31.78;99685.16;4400187;32;34652;-81
2023/06/01 08:52:42;;;;;;;;;;;;;;;27.06;31.46;99672.59;4400293;32;35432;-82
2023/06/01 08:55:11;;;;;;;;;;;;;;;27.44;29.52;99677.44;4401495;32;32800;-80
2023/06/01 08:57:41;;;;;;;;;;;;;;;27.76;29.84;99679.19;4406213;32;33321;-81
2023/06/01 09:00:13;;;;;;;;;;;;;;;27.12;29.97;99675.59;4399680;32;34628;-81
2023/06/01 09:02:44;;;;;;;;;;;;;;;27.53;31.45;99673.16;4399279;32;34485;-82
2023/06/01 09:05:17;;;;;;;;;;;;;;;27.86;28.19;99677.50;4385674;32;33609;-81
2023/06/01 09:07:47;;;;;;;;;;;;;;;28.03;27.71;99663.53;4390287;32;34737;-80
2023/06/01 09:10:16;;;;;;;;;;;;;;;28.00;28.04;99666.47;4372461;32;33293;-81
2023/06/01 09:12:51;;;;;;;;;;;;;;;27.16;31.14;99660.19;4385520;32;34382;-80
2023/06/01 09:15:20;;;;;;;;;;;;;;;27.71;30.42;99666.25;4385812;32;34261;-82
2023/06/01 09:17:50;;;;;;;;;;;;;;;28.14;30.69;99669.75;4385679;32;34144;-82
2023/06/01 09:20:23;;;;;;;;;;;;;;;28.14;29.87;99673.28;4390538;32;34374;-82
2023/06/01 09:22:54;;;;;;;;;;;;;;;28.07;28.28;99664.94;4385757;32;34214;-80
2023/06/01 09:25:27;;;;;;;;;;;;;;;28.46;27.34;99657.16;4385514;32;33158;-78
2023/06/01 09:27:56;;;;;;;;;;;;;;;28.59;28.05;99658.72;4385613;32;35573;-80
2023/06/01 09:30:27;;;;;;;;;;;;;;;28.77;27.00;99656.25;4391010;32;33686;-81
2023/06/01 09:33:07;;;;;;;;;;;;;;;28.37;26.60;99655.25;4388561;32;33757;-81
2023/06/01 09:35:40;;;;;;;;;;;;;;;28.53;27.68;99654.78;4384417;32;32034;-80
2023/06/01 09:38:10;;;;;;;;;;;;;;;28.27;27.53;99651.69;4385651;32;34702;-80
2023/06/01 09:40:40;;;;;;;;;;;;;;;28.44;29.72;99651.06;4385580;32;33824;-81
2023/06/01 09:43:21;;;;;;;;;;;;;;;28.63;29.84;99652.13;4390896;32;33929;-81
2023/06/01 09:46:04;;;;;;;;;;;;;;;28.56;30.09;99648.31;4391021;32;33008;-81
2023/06/01 09:48:32;;;;;;;;;;;;;;;28.90;27.27;99647.00;4385744;32;35590;-80
2023/06/01 09:51:01;;;;;;;;;;;;;;;28.97;27.74;99657.09;4385240;32;33747;-81
2023/06/01 09:53:41;;;;;;;;;;;;;;;28.97;28.10;99654.44;4385578;32;35869;-80
2023/06/01 09:56:10;;;;;;;;;;;;;;;29.02;28.16;99650.37;4390759;32;33593;-81
2023/06/01 09:58:40;;;;;;;;;;;;;;;29.02;27.36;99647.72;4389992;32;33693;-79
2023/06/01 10:01:09;;;;;;;;;;;;;;;29.11;27.53;99648.72;4385297;32;33144;-80
2023/06/01 10:03:41;;;;;;;;;;;;;;;29.03;27.83;99646.72;4386269;32;34046;-80
2023/06/01 10:06:11;;;;;;;;;;;;;;;29.04;27.29;99648.38;4385655;32;33508;-81
2023/06/01 10:08:45;;;;;;;;;;;;;;;29.30;27.80;99643.34;4390450;32;34959;-82
2023/06/01 10:11:13;;;;;;;;;;;;;;;29.00;26.88;99640.81;4384766;32;34870;-81
2023/06/01 10:13:42;;;;;;;;;;;;;;;29.07;27.13;99639.31;4385447;32;34091;-79
2023/06/01 10:16:12;;;;;;;;;;;;;;;29.34;27.09;99639.44;4385116;32;34340;-80
2023/06/01 10:18:41;;;;;;;;;;;;;;;29.64;27.30;99639.38;4390160;32;34699;-81
2023/06/01 10:21:10;;;;;;;;;;;;;;;29.53;25.85;99638.56;4389872;32;34549;-79
2023/06/01 10:23:39;;;;;;;;;;;;;;;29.33;25.42;99632.41;4385149;32;34721;-79
2023/06/01 10:26:11;;;;;;;;;;;;;;;29.12;26.90;99624.53;4384598;32;33699;-80
2023/06/01 10:28:40;;;;;;;;;;;;;;;29.46;26.80;99624.09;4385286;32;34116;-81
2023/06/01 10:31:30;;;;;;;;;;;;;;;29.71;26.92;99627.16;4390698;32;34950;-79
2023/06/01 10:34:00;;;;;;;;;;;;;;;29.60;27.63;99620.13;4372729;32;34576;-81
2023/06/01 10:36:43;;;;;;;;;;;;;;;30.04;25.80;99617.75;4385152;32;33596;-80
2023/06/01 10:39:24;;;;;;;;;;;;;;;29.74;26.38;99616.16;4384910;32;33631;-81
2023/06/01 10:41:55;;;;;;;;;;;;;;;30.02;26.66;99610.88;4384967;32;34163;-80
2023/06/01 10:44:42;;;;;;;;;;;;;;;30.53;26.67;99609.50;4390536;32;33373;-79
2023/06/01 10:47:20;;;;;;;;;;;;;;;30.59;26.56;99607.09;4396437;32;33420;-81
2023/06/01 10:50:08;;;;;;;;;;;;;;;30.63;26.54;99607.59;4388420;32;34259;-81
2023/06/01 10:52:40;;;;;;;;;;;;;;;30.93;26.08;99608.25;4396660;32;33894;-80
2023/06/01 10:55:36;;;;;;;;;;;;;;;30.99;25.55;99600.47;4399633;32;34756;-81
2023/06/01 10:58:20;;;;;;;;;;;;;;;31.26;25.18;99602.19;4341425;32;33255;-81
2023/06/01 11:00:50;;;;;;;;;;;;;;;31.11;24.59;99592.19;4340184;32;34419;-80
2023/06/01 11:03:33;;;;;;;;;;;;;;;31.32;24.49;99599.91;4342791;33;34148;-80
2023/06/01 11:06:04;;;;;;;;;;;;;;;30.11;25.60;99600.13;4335046;33;34865;-80
2023/06/01 11:08:56;;;;;;;;;;;;;;;30.11;26.96;99593.94;4337685;33;35404;-79
2023/06/01 11:11:47;;;;;;;;;;;;;;;30.48;26.79;99598.41;4337809;33;34504;-79
2023/06/01 11:14:17;;;;;;;;;;;;;;;30.96;25.99;99590.06;4338016;33;35016;-81
2023/06/01 11:16:50;;;;;;;;;;;;;;;31.20;25.31;99588.59;4336392;33;34011;-79
2023/06/01 11:19:20;;;;;;;;;;;;;;;31.53;23.28;99578.12;4341386;33;34101;-82
2023/06/01 11:21:51;;;;;;;;;;;;;;;31.06;25.29;99568.53;4339012;33;33838;-82
2023/06/01 11:24:19;;;;;;;;;;;;;;;31.02;25.76;99573.34;4337055;33;33615;-81
2023/06/01 11:26:48;;;;;;;;;;;;;;;30.70;24.88;99567.69;4336860;33;34606;-82
2023/06/01 11:29:21;;;;;;;;;;;;;;;30.38;25.21;99564.53;4342677;33;33587;-79
2023/06/01 11:31:53;;;;;;;;;;;;;;;31.01;25.89;99569.00;4337266;33;34113;-81
2023/06/01 11:34:28;;;;;;;;;;;;;;;31.27;24.18;99560.16;4367370;32;33560;-81
2023/06/01 11:36:58;;;;;;;;;;;;;;;31.48;24.77;99554.47;4384500;32;35150;-81
2023/06/01 11:39:28;;;;;;;;;;;;;;;31.51;24.72;99561.34;4384777;32;33969;-81
2023/06/01 11:42:07;;;;;;;;;;;;;;;31.16;24.99;99547.84;4390200;32;33380;-80
2023/06/01 11:44:37;;;;;;;;;;;;;;;30.92;24.35;99545.81;4384775;32;35219;-80
2023/06/01 11:47:07;;;;;;;;;;;;;;;30.96;25.95;99541.84;4384202;32;34886;-80
2023/06/01 11:49:47;;;;;;;;;;;;;;;31.28;26.29;99548.44;4385592;32;32969;-80
2023/06/01 11:52:16;;;;;;;;;;;;;;;31.57;24.77;99536.59;4384744;32;33408;-81
2023/06/01 11:54:45;;;;;;;;;;;;;;;31.94;25.01;99538.94;4389893;32;34108;-80
2023/06/01 11:57:14;;;;;;;;;;;;;;;32.08;24.59;99534.81;4384232;32;34797;-82
2023/06/01 11:59:43;;;;;;;;;;;;;;;32.23;23.94;99532.34;4384224;32;33456;-81
2023/06/01 12:02:21;;;;;;;;;;;;;;;32.27;23.03;99534.53;4384623;32;33957;-80
2023/06/01 12:04:57;;;;;;;;;;;;;;;31.79;23.29;99517.25;4387471;32;34396;-80
2023/06/01 12:07:25;;;;;;;;;;;;;;;31.41;24.06;99529.28;4389449;32;34281;-80
2023/06/01 12:09:55;;;;;;;;;;;;;;;30.82;23.82;99516.41;4384303;32;33702;-80
2023/06/01 12:12:24;;;;;;;;;;;;;;;31.45;23.85;99512.72;4383724;32;34815;-80
2023/06/01 12:14:53;;;;;;;;;;;;;;;31.37;23.00;99512.66;4384130;32;34353;-80
2023/06/01 12:17:23;;;;;;;;;;;;;;;31.42;24.44;99510.38;4389417;32;34003;-80
2023/06/01 12:19:52;;;;;;;;;;;;;;;31.73;24.99;99506.34;4384464;32;33279;-80
2023/06/01 12:22:21;;;;;;;;;;;;;;;31.92;23.45;99515.94;4384111;32;33957;-80
2023/06/01 12:24:50;;;;;;;;;;;;;;;31.45;23.53;99503.84;4384123;32;33700;-80
2023/06/01 12:27:19;;;;;;;;;;;;;;;30.82;24.96;99502.19;4389374;32;34151;-81
2023/06/01 12:29:50;;;;;;;;;;;;;;;30.89;24.95;99497.09;4388247;32;34511;-80
2023/06/01 12:32:20;;;;;;;;;;;;;;;30.64;24.41;99494.19;4384483;32;34128;-80
2023/06/01 12:37:41;;;;;;;;;;;;;;;31.85;24.64;99472.84;4483832;31;1167374;-80
2023/06/01 12:40:11;;;;;;;;;;;;;;;31.85;24.64;99472.84;4525267;31;32890;-79
2023/06/01 12:42:40;;;;;;;;;;;;;;;31.42;24.33;99488.91;4526954;31;35304;-81
2023/06/01 12:45:10;;;;;;;;;;;;;;;31.26;25.32;99476.22;4520746;31;33985;-80
2023/06/01 12:47:39;;;;;;;;;;;;;;;30.97;25.27;99476.53;4520864;31;34159;-79
2023/06/01 12:50:08;;;;;;;;;;;;;;;31.06;26.37;99473.94;4521095;31;32859;-81
2023/06/01 12:52:37;;;;;;;;;;;;;;;31.52;26.56;99471.88;4526446;31;33788;-79
2023/06/01 12:55:08;;;;;;;;;;;;;;;31.73;24.97;99464.25;4521119;31;34230;-80
2023/06/01 12:57:37;;;;;;;;;;;;;;;31.94;24.18;99465.66;4521007;31;33966;-80
2023/06/01 13:00:07;;;;;;;;;;;;;;;32.22;24.24;99461.72;4520908;31;33303;-80
2023/06/01 13:02:38;;;;;;;;;;;;;;;32.21;23.84;99461.88;4526179;31;34266;-80
2023/06/01 13:05:08;;;;;;;;;;;;;;;32.36;24.04;99456.72;4524688;31;34053;-80